createdAt,value
2019-03-22T00:00:39.341Z,81.115723
2019-03-22T00:01:48.877Z,81.005859
2019-03-22T00:02:58.434Z,81.005859
2019-03-22T00:04:07.956Z,81.115723
2019-03-22T00:05:17.500Z,80.79834
2019-03-22T00:06:27.051Z,81.115723
2019-03-22T00:07:36.606Z,81.323242
2019-03-22T00:08:46.143Z,81.005859
2019-03-22T00:09:55.700Z,80.59082
2019-03-22T00:11:05.305Z,80.865479
2019-03-22T00:12:14.826Z,80.69458
2019-03-22T00:13:24.369Z,80.69458
2019-03-22T00:14:33.934Z,80.59082
2019-03-22T00:15:43.496Z,80.59082
2019-03-22T00:16:53.041Z,80.487061
2019-03-22T00:18:02.566Z,80.383301
2019-03-22T00:19:12.118Z,80.383301
2019-03-22T00:20:21.638Z,80.273438
2019-03-22T00:21:31.180Z,80.273438
2019-03-22T00:22:40.719Z,80.383301
2019-03-22T00:23:50.287Z,80.383301
2019-03-22T00:24:59.798Z,80.273438
2019-03-22T00:26:09.360Z,80.065918
2019-03-22T00:27:18.880Z,80.273438
2019-03-22T00:28:28.395Z,80.487061
2019-03-22T00:29:37.968Z,80.487061
2019-03-22T00:30:47.497Z,80.169678
2019-03-22T00:31:58.030Z,80.169678
2019-03-22T00:33:07.578Z,80.487061
2019-03-22T00:34:17.113Z,80.834961
2019-03-22T00:35:26.659Z,81.359863
2019-03-22T00:36:36.204Z,81.781006
2019-03-22T00:37:45.724Z,81.884766
2019-03-22T00:38:55.261Z,81.988525
2019-03-22T00:40:04.807Z,81.884766
2019-03-22T00:41:14.351Z,81.567383
2019-03-22T00:42:23.890Z,81.671143
2019-03-22T00:43:33.429Z,81.463623
2019-03-22T00:44:42.982Z,81.152344
2019-03-22T00:45:52.552Z,81.567383
2019-03-22T00:47:02.091Z,81.152344
2019-03-22T00:48:11.622Z,80.627441
2019-03-22T00:49:21.162Z,81.152344
2019-03-22T00:50:30.717Z,81.04248
2019-03-22T00:51:40.254Z,81.463623
2019-03-22T00:52:49.794Z,81.463623
2019-03-22T00:53:59.358Z,81.359863
2019-03-22T00:55:08.887Z,81.152344
2019-03-22T00:56:18.412Z,81.463623
2019-03-22T00:57:28.917Z,81.359863
2019-03-22T00:58:37.565Z,81.463623
2019-03-22T00:59:47.125Z,81.396484
2019-03-22T01:00:56.749Z,81.604004
2019-03-22T01:02:06.341Z,82.025146
2019-03-22T01:03:15.883Z,82.446289
2019-03-22T01:04:25.425Z,82.653809
2019-03-22T01:05:34.958Z,82.794189
2019-03-22T01:06:44.496Z,83.422852
2019-03-22T01:07:54.027Z,83.526611
2019-03-22T01:09:03.574Z,83.740234
2019-03-22T01:10:13.144Z,83.740234
2019-03-22T01:11:22.709Z,83.636475
2019-03-22T01:12:32.253Z,83.48999
2019-03-22T01:13:41.803Z,83.282471
2019-03-22T01:14:51.317Z,83.074951
2019-03-22T01:16:00.849Z,82.757568
2019-03-22T01:17:10.385Z,82.653809
2019-03-22T01:18:19.932Z,82.653809
2019-03-22T01:19:29.491Z,82.550049
2019-03-22T01:20:39.025Z,82.653809
2019-03-22T01:21:48.573Z,82.550049
2019-03-22T01:22:58.129Z,82.37915
2019-03-22T01:24:07.656Z,83.007812
2019-03-22T01:25:17.230Z,83.215332
2019-03-22T01:26:26.744Z,83.215332
2019-03-22T01:27:40.572Z,83.007812
2019-03-22T01:28:46.771Z,83.007812
2019-03-22T01:29:56.322Z,83.215332
2019-03-22T01:31:05.857Z,83.044434
2019-03-22T01:32:15.386Z,83.044434
2019-03-22T01:33:24.947Z,83.215332
2019-03-22T01:34:34.503Z,82.37915
2019-03-22T01:35:44.030Z,81.188965
2019-03-22T01:36:53.579Z,80.871582
2019-03-22T01:38:03.145Z,80.664062
2019-03-22T01:39:12.648Z,80.560303
2019-03-22T01:40:22.235Z,80.560303
2019-03-22T01:41:31.828Z,80.0354
2019-03-22T01:42:41.466Z,80.24292
2019-03-22T01:43:51.145Z,80.664062
2019-03-22T01:45:00.830Z,80.664062
2019-03-22T01:46:10.393Z,81.121826
2019-03-22T01:47:19.930Z,81.433105
2019-03-22T01:48:29.464Z,81.433105
2019-03-22T01:49:39.015Z,81.994629
2019-03-22T01:50:48.559Z,82.727051
2019-03-22T01:51:59.088Z,83.148193
2019-03-22T01:53:08.612Z,83.776855
2019-03-22T01:54:18.136Z,83.569336
2019-03-22T01:55:27.697Z,83.355713
2019-03-22T01:56:37.219Z,83.251953
2019-03-22T01:57:52.793Z,83.355713
2019-03-22T01:58:57.244Z,83.355713
2019-03-22T02:00:06.795Z,83.569336
2019-03-22T02:01:16.341Z,83.92334
2019-03-22T02:02:25.883Z,84.0271
2019-03-22T02:03:35.426Z,84.130859
2019-03-22T02:04:44.970Z,83.813477
2019-03-22T02:05:54.532Z,83.776855
2019-03-22T02:07:04.076Z,83.605957
2019-03-22T02:08:13.635Z,83.398438
2019-03-22T02:09:23.164Z,83.605957
2019-03-22T02:10:32.725Z,83.92334
2019-03-22T02:11:42.249Z,84.338379
2019-03-22T02:12:51.783Z,84.197998
2019-03-22T02:14:01.319Z,83.984375
2019-03-22T02:15:10.847Z,83.673096
2019-03-22T02:16:21.379Z,83.355713
2019-03-22T02:17:30.952Z,83.111572
2019-03-22T02:18:40.491Z,82.897949
2019-03-22T02:19:50.021Z,82.58667
2019-03-22T02:20:59.575Z,82.37915
2019-03-22T02:22:09.119Z,82.269287
2019-03-22T02:23:18.647Z,82.165527
2019-03-22T02:24:28.199Z,82.269287
2019-03-22T02:25:37.770Z,82.165527
2019-03-22T02:26:47.298Z,82.269287
2019-03-22T02:28:03.927Z,82.37915
2019-03-22T02:29:07.396Z,82.37915
2019-03-22T02:30:16.945Z,82.165527
2019-03-22T02:31:26.496Z,81.958008
2019-03-22T02:32:36.028Z,81.536865
2019-03-22T02:33:45.545Z,81.121826
2019-03-22T02:34:55.089Z,81.225586
2019-03-22T02:36:04.626Z,81.536865
2019-03-22T02:37:14.159Z,81.750488
2019-03-22T02:38:23.704Z,81.854248
2019-03-22T02:39:33.393Z,81.750488
2019-03-22T02:40:42.779Z,81.750488
2019-03-22T02:41:52.317Z,82.098389
2019-03-22T02:43:01.859Z,82.202148
2019-03-22T02:44:11.385Z,82.519531
2019-03-22T02:45:20.960Z,82.830811
2019-03-22T02:46:30.475Z,83.569336
2019-03-22T02:47:40.023Z,83.776855
2019-03-22T02:48:49.572Z,83.709717
2019-03-22T02:49:59.123Z,83.502197
2019-03-22T02:51:09.671Z,83.880615
2019-03-22T02:52:19.214Z,83.465576
2019-03-22T02:53:28.735Z,83.569336
2019-03-22T02:54:39.265Z,83.569336
2019-03-22T02:55:48.827Z,83.398438
2019-03-22T02:56:58.359Z,82.977295
2019-03-22T02:58:19.611Z,83.184814
2019-03-22T02:59:18.405Z,84.130859
2019-03-22T03:00:27.962Z,83.813477
2019-03-22T03:01:37.487Z,83.502197
2019-03-22T03:02:47.045Z,83.605957
2019-03-22T03:03:56.547Z,83.288574
2019-03-22T03:05:06.114Z,83.502197
2019-03-22T03:06:15.684Z,83.605957
2019-03-22T03:07:25.210Z,83.813477
2019-03-22T03:08:34.744Z,83.709717
2019-03-22T03:09:44.286Z,83.605957
2019-03-22T03:10:53.845Z,84.130859
2019-03-22T03:12:03.382Z,84.405518
2019-03-22T03:13:12.915Z,84.405518
2019-03-22T03:14:22.448Z,83.984375
2019-03-22T03:15:31.997Z,83.776855
2019-03-22T03:16:41.581Z,83.673096
2019-03-22T03:17:51.099Z,83.569336
2019-03-22T03:19:00.697Z,83.776855
2019-03-22T03:20:10.204Z,83.880615
2019-03-22T03:21:19.749Z,83.880615
2019-03-22T03:22:29.254Z,84.094238
2019-03-22T03:23:38.825Z,84.130859
2019-03-22T03:24:48.365Z,83.813477
2019-03-22T03:25:57.904Z,83.92334
2019-03-22T03:27:07.457Z,84.0271
2019-03-22T03:28:17.023Z,84.234619
2019-03-22T03:29:27.558Z,84.130859
2019-03-22T03:30:37.097Z,83.92334
2019-03-22T03:31:46.652Z,83.813477
2019-03-22T03:32:56.187Z,83.746338
2019-03-22T03:34:05.722Z,83.856201
2019-03-22T03:35:15.252Z,83.856201
2019-03-22T03:36:24.842Z,84.27124
2019-03-22T03:37:34.407Z,84.27124
2019-03-22T03:38:43.962Z,84.484863
2019-03-22T03:39:53.495Z,84.838867
2019-03-22T03:41:03.059Z,85.150146
2019-03-22T03:42:12.568Z,85.992432
2019-03-22T03:43:22.097Z,86.413574
2019-03-22T03:44:31.633Z,86.413574
2019-03-22T03:45:41.169Z,86.303711
2019-03-22T03:46:51.715Z,86.450195
2019-03-22T03:48:02.242Z,87.60376
2019-03-22T03:49:11.770Z,88.342285
2019-03-22T03:50:21.308Z,88.549805
2019-03-22T03:51:30.869Z,88.549805
2019-03-22T03:52:40.380Z,88.238525
2019-03-22T03:53:49.916Z,87.817383
2019-03-22T03:54:59.444Z,87.5
2019-03-22T03:56:09.023Z,87.5
2019-03-22T03:57:18.536Z,87.921143
2019-03-22T03:58:28.079Z,88.446045
2019-03-22T03:59:37.606Z,88.970947
2019-03-22T04:00:47.143Z,88.867188
2019-03-22T04:01:56.688Z,88.763428
2019-03-22T04:03:06.220Z,88.342285
2019-03-22T04:04:15.748Z,88.238525
2019-03-22T04:05:25.276Z,88.720703
2019-03-22T04:06:34.849Z,88.824463
2019-03-22T04:07:44.375Z,88.824463
2019-03-22T04:08:53.924Z,88.824463
2019-03-22T04:10:03.448Z,88.616943
2019-03-22T04:11:13.008Z,88.513184
2019-03-22T04:12:22.538Z,88.409424
2019-03-22T04:13:32.069Z,88.299561
2019-03-22T04:14:41.609Z,88.409424
2019-03-22T04:15:51.126Z,88.513184
2019-03-22T04:17:00.679Z,88.720703
2019-03-22T04:18:10.210Z,88.720703
2019-03-22T04:19:19.751Z,88.513184
2019-03-22T04:20:29.269Z,87.884521
2019-03-22T04:21:38.818Z,87.670898
2019-03-22T04:22:48.355Z,87.463379
2019-03-22T04:23:57.895Z,87.145996
2019-03-22T04:25:07.419Z,86.938477
2019-03-22T04:26:16.982Z,86.621094
2019-03-22T04:27:26.509Z,86.517334
2019-03-22T04:28:36.054Z,86.553955
2019-03-22T04:29:45.560Z,86.346436
2019-03-22T04:30:55.113Z,87.078857
2019-03-22T04:32:04.660Z,87.5
2019-03-22T04:33:14.175Z,87.854004
2019-03-22T04:34:23.805Z,88.696289
2019-03-22T04:35:33.468Z,89.434814
2019-03-22T04:36:43.072Z,89.538574
2019-03-22T04:37:52.618Z,89.324951
2019-03-22T04:39:02.160Z,89.117432
2019-03-22T04:40:11.708Z,89.013672
2019-03-22T04:41:21.255Z,89.013672
2019-03-22T04:42:30.785Z,88.696289
2019-03-22T04:43:40.306Z,88.275146
2019-03-22T04:44:49.851Z,88.067627
2019-03-22T04:45:59.392Z,87.713623
2019-03-22T04:47:08.926Z,87.438965
2019-03-22T04:48:18.471Z,87.225342
2019-03-22T04:49:28.005Z,87.225342
2019-03-22T04:50:37.520Z,87.542725
2019-03-22T04:51:48.063Z,87.854004
2019-03-22T04:52:57.589Z,87.854004
2019-03-22T04:54:07.140Z,87.854004
2019-03-22T04:55:16.669Z,87.750244
2019-03-22T04:56:26.214Z,88.275146
2019-03-22T04:57:35.744Z,88.48877
2019-03-22T04:58:46.724Z,88.696289
2019-03-22T04:59:54.839Z,88.592529
2019-03-22T05:01:04.462Z,88.525391
2019-03-22T05:02:14.088Z,88.62915
2019-03-22T05:03:23.626Z,89.160156
2019-03-22T05:04:33.160Z,89.471436
2019-03-22T05:05:42.699Z,89.685059
2019-03-22T05:06:52.239Z,90.41748
2019-03-22T05:08:01.764Z,90.734863
2019-03-22T05:09:11.299Z,91.156006
2019-03-22T05:10:20.835Z,91.259766
2019-03-22T05:11:30.391Z,91.473389
2019-03-22T05:12:40.923Z,91.577148
2019-03-22T05:13:50.469Z,91.680908
2019-03-22T05:15:00.015Z,91.577148
2019-03-22T05:16:09.535Z,91.534424
2019-03-22T05:17:19.078Z,91.534424
2019-03-22T05:18:28.620Z,91.326904
2019-03-22T05:19:38.150Z,92.437744
2019-03-22T05:20:47.689Z,93.17627
2019-03-22T05:21:57.256Z,92.608643
2019-03-22T05:23:06.808Z,91.766357
2019-03-22T05:24:18.238Z,90.820312
2019-03-22T05:25:25.871Z,90.087891
2019-03-22T05:26:35.400Z,89.349365
2019-03-22T05:27:44.956Z,88.720703
2019-03-22T05:28:54.468Z,88.513184
2019-03-22T05:30:04.040Z,88.299561
2019-03-22T05:31:13.584Z,87.988281
2019-03-22T05:32:23.143Z,87.463379
2019-03-22T05:33:32.694Z,87.042236
2019-03-22T05:34:42.206Z,87.042236
2019-03-22T05:35:51.737Z,87.042236
2019-03-22T05:37:01.300Z,87.145996
2019-03-22T05:38:10.846Z,87.042236
2019-03-22T05:39:20.396Z,86.938477
2019-03-22T05:40:29.927Z,87.145996
2019-03-22T05:41:39.567Z,87.988281
2019-03-22T05:42:49.190Z,87.945557
2019-03-22T05:43:58.744Z,87.316895
2019-03-22T05:45:08.260Z,86.999512
2019-03-22T05:46:17.873Z,86.999512
2019-03-22T05:47:27.470Z,86.584473
2019-03-22T05:48:37.064Z,86.26709
2019-03-22T05:49:46.584Z,86.962891
2019-03-22T05:50:56.116Z,87.487793
2019-03-22T05:52:05.689Z,87.06665
2019-03-22T05:53:15.215Z,86.962891
2019-03-22T05:54:24.744Z,86.962891
2019-03-22T05:55:34.312Z,86.859131
2019-03-22T05:56:43.842Z,86.755371
2019-03-22T05:57:53.410Z,86.645508
2019-03-22T05:59:02.948Z,87.280273
2019-03-22T06:00:12.482Z,87.591553
2019-03-22T06:01:22.015Z,87.384033
2019-03-22T06:02:31.562Z,87.695312
2019-03-22T06:03:41.089Z,87.695312
2019-03-22T06:04:50.627Z,87.695312
2019-03-22T06:06:00.163Z,87.341309
2019-03-22T06:07:09.698Z,86.712646
2019-03-22T06:08:19.241Z,86.505127
2019-03-22T06:09:28.776Z,86.291504
2019-03-22T06:10:38.305Z,85.980225
2019-03-22T06:11:47.848Z,86.187744
2019-03-22T06:12:57.377Z,86.254883
2019-03-22T06:14:06.918Z,86.047363
2019-03-22T06:15:16.453Z,85.83374
2019-03-22T06:16:25.990Z,84.997559
2019-03-22T06:17:35.530Z,84.851074
2019-03-22T06:18:46.070Z,85.064697
2019-03-22T06:19:55.595Z,85.272217
2019-03-22T06:21:05.127Z,84.851074
2019-03-22T06:22:14.654Z,85.064697
2019-03-22T06:23:24.249Z,85.339355
2019-03-22T06:24:33.787Z,85.339355
2019-03-22T06:25:43.307Z,84.674072
2019-03-22T06:26:52.841Z,84.356689
2019-03-22T06:28:02.389Z,84.04541
2019-03-22T06:29:11.917Z,83.624268
2019-03-22T06:30:21.462Z,83.520508
2019-03-22T06:31:30.997Z,83.312988
2019-03-22T06:32:40.538Z,83.728027
2019-03-22T06:33:50.133Z,84.25293
2019-03-22T06:34:59.683Z,84.216309
2019-03-22T06:36:09.221Z,84.112549
2019-03-22T06:37:18.766Z,83.441162
2019-03-22T06:38:28.316Z,82.781982
2019-03-22T06:39:37.858Z,82.36084
2019-03-22T06:40:47.369Z,81.799316
2019-03-22T06:41:56.903Z,81.280518
2019-03-22T06:43:07.432Z,80.615234
2019-03-22T06:44:16.971Z,80.303955
2019-03-22T06:45:26.506Z,79.846191
2019-03-22T06:46:36.039Z,79.083252
2019-03-22T06:47:45.580Z,78.35083
2019-03-22T06:48:55.118Z,77.44751
2019-03-22T06:50:04.659Z,76.922607
2019-03-22T06:51:14.194Z,76.470947
2019-03-22T06:52:23.730Z,75.811768
2019-03-22T06:53:34.275Z,75.189209
2019-03-22T06:54:43.805Z,74.530029
2019-03-22T06:55:53.333Z,73.76709
2019-03-22T06:57:02.876Z,73.248291
2019-03-22T06:58:12.505Z,72.900391
2019-03-22T06:59:22.027Z,72.76001
2019-03-22T07:00:31.578Z,72.106934
2019-03-22T07:01:41.121Z,70.721436
2019-03-22T07:02:50.669Z,69.86084
2019-03-22T07:04:00.188Z,68.927002
2019-03-22T07:05:09.727Z,69.104004
2019-03-22T07:06:19.248Z,68.548584
2019-03-22T07:07:28.781Z,67.718506
2019-03-22T07:08:38.313Z,67.687988
2019-03-22T07:09:47.884Z,67.242432
2019-03-22T07:10:57.417Z,66.485596
2019-03-22T07:12:06.948Z,65.734863
2019-03-22T07:13:16.477Z,64.904785
2019-03-22T07:14:26.010Z,64.355469
2019-03-22T07:15:35.565Z,63.842773
2019-03-22T07:16:45.085Z,63.293457
2019-03-22T07:17:54.632Z,63.293457
2019-03-22T07:19:04.179Z,62.646484
2019-03-22T07:20:13.710Z,61.889648
2019-03-22T07:21:23.254Z,61.657715
2019-03-22T07:22:32.784Z,60.827637
2019-03-22T07:23:42.325Z,60.180664
2019-03-22T07:24:51.861Z,60.180664
2019-03-22T07:26:01.393Z,59.741211
2019-03-22T07:27:10.924Z,59.228516
2019-03-22T07:28:20.477Z,59.124756
2019-03-22T07:29:30.026Z,58.374023
2019-03-22T07:30:39.546Z,58.062744
2019-03-22T07:31:49.062Z,57.861328
2019-03-22T07:32:58.617Z,58.270264
2019-03-22T07:34:08.172Z,58.477783
2019-03-22T07:35:17.712Z,58.374023
2019-03-22T07:36:27.251Z,58.166504
2019-03-22T07:37:36.924Z,57.727051
2019-03-22T07:38:46.761Z,57.702637
2019-03-22T07:39:56.291Z,56.982422
2019-03-22T07:41:05.837Z,56.231689
2019-03-22T07:42:17.467Z,55.279541
2019-03-22T07:43:24.887Z,54.766846
2019-03-22T07:44:35.415Z,55.279541
2019-03-22T07:45:44.958Z,55.255127
2019-03-22T07:46:54.508Z,54.742432
2019-03-22T07:48:04.080Z,54.406738
2019-03-22T07:49:13.602Z,53.967285
2019-03-22T07:50:23.134Z,53.662109
2019-03-22T07:51:32.657Z,53.326416
2019-03-22T07:52:42.188Z,53.22876
2019-03-22T07:53:51.737Z,53.302002
2019-03-22T07:55:01.283Z,52.893066
2019-03-22T07:56:10.808Z,52.380371
2019-03-22T07:57:20.351Z,52.252197
2019-03-22T07:58:29.872Z,51.226807
2019-03-22T07:59:39.411Z,51.019287
2019-03-22T08:00:48.951Z,50.610352
2019-03-22T08:01:58.474Z,50.793457
2019-03-22T08:03:08.022Z,51.202393
2019-03-22T08:04:17.559Z,50.793457
2019-03-22T08:05:27.103Z,50.073242
2019-03-22T08:06:37.606Z,49.639893
2019-03-22T08:07:47.135Z,49.536133
2019-03-22T08:08:56.689Z,49.511719
2019-03-22T08:10:06.239Z,49.102783
2019-03-22T08:11:15.758Z,48.797607
2019-03-22T08:12:25.301Z,48.571777
2019-03-22T08:13:34.843Z,47.546387
2019-03-22T08:14:44.386Z,47.930908
2019-03-22T08:15:53.898Z,48.138428
2019-03-22T08:17:03.439Z,47.418213
2019-03-22T08:18:12.984Z,47.729492
2019-03-22T08:19:22.504Z,47.808838
2019-03-22T08:20:32.032Z,46.453857
2019-03-22T08:21:42.560Z,46.435547
2019-03-22T08:22:52.129Z,45.715332
2019-03-22T08:24:01.666Z,45.922852
2019-03-22T08:25:11.180Z,46.105957
2019-03-22T08:26:20.705Z,46.105957
2019-03-22T08:27:30.248Z,44.75708
2019-03-22T08:28:39.801Z,44.549561
2019-03-22T08:29:49.378Z,44.549561
2019-03-22T08:30:58.917Z,44.445801
2019-03-22T08:32:09.420Z,43.322754
2019-03-22T08:33:18.982Z,46.185303
2019-03-22T08:34:28.520Z,44.958496
2019-03-22T08:35:38.041Z,44.018555
2019-03-22T08:36:47.576Z,43.817139
2019-03-22T08:37:57.105Z,43.914795
2019-03-22T08:39:06.652Z,43.792725
2019-03-22T08:40:16.201Z,44.07959
2019-03-22T08:41:25.706Z,41.937256
2019-03-22T08:42:35.270Z,41.711426
2019-03-22T08:43:44.790Z,40.692139
2019-03-22T08:44:54.331Z,41.40625
2019-03-22T08:46:03.915Z,41.204834
2019-03-22T08:47:13.410Z,42.529297
2019-03-22T08:48:22.906Z,42.956543
2019-03-22T08:49:32.482Z,41.711426
2019-03-22T08:50:42.022Z,41.387939
2019-03-22T08:51:51.528Z,41.186523
2019-03-22T08:53:01.074Z,40.570068
2019-03-22T08:54:10.634Z,40.673828
2019-03-22T08:55:20.194Z,40.875244
2019-03-22T08:56:29.689Z,40.454102
2019-03-22T08:57:40.222Z,39.61792
2019-03-22T08:58:49.778Z,39.72168
2019-03-22T08:59:59.323Z,40.106201
2019-03-22T09:01:08.823Z,39.886475
2019-03-22T09:02:18.357Z,39.764404
2019-03-22T09:03:27.888Z,39.257812
2019-03-22T09:04:37.451Z,38.934326
2019-03-22T09:05:46.987Z,38.934326
2019-03-22T09:06:58.890Z,38.73291
2019-03-22T09:08:06.060Z,38.201904
2019-03-22T09:09:15.607Z,38.201904
2019-03-22T09:10:25.121Z,38.391113
2019-03-22T09:11:34.687Z,36.968994
2019-03-22T09:12:44.221Z,37.579346
2019-03-22T09:13:54.137Z,37.27417
2019-03-22T09:15:03.364Z,37.353516
2019-03-22T09:16:12.794Z,36.950684
2019-03-22T09:17:22.333Z,36.560059
2019-03-22T09:18:31.907Z,37.04834
2019-03-22T09:19:41.428Z,36.627197
2019-03-22T09:20:50.916Z,36.627197
2019-03-22T09:22:00.455Z,36.816406
2019-03-22T09:23:09.980Z,35.699463
2019-03-22T09:24:19.540Z,35.784912
2019-03-22T09:25:29.031Z,35.681152
2019-03-22T09:26:47.332Z,34.869385
2019-03-22T09:27:49.079Z,36.004639
2019-03-22T09:28:59.609Z,35.681152
2019-03-22T09:30:09.177Z,35.986328
2019-03-22T09:31:18.667Z,35.26001
2019-03-22T09:32:28.225Z,34.332275
2019-03-22T09:33:38.786Z,34.838867
2019-03-22T09:34:48.271Z,34.216309
2019-03-22T09:35:57.795Z,34.216309
2019-03-22T09:37:08.912Z,33.605957
2019-03-22T09:38:16.889Z,34.197998
2019-03-22T09:39:26.433Z,33.47168
2019-03-22T09:40:35.923Z,33.270264
2019-03-22T09:41:45.473Z,33.087158
2019-03-22T09:42:55.158Z,32.781982
2019-03-22T09:44:04.738Z,33.374023
2019-03-22T09:45:14.594Z,32.781982
2019-03-22T09:46:23.811Z,32.678223
2019-03-22T09:47:33.348Z,33.270264
2019-03-22T09:48:42.969Z,32.446289
2019-03-22T09:49:52.446Z,31.92749
2019-03-22T09:51:01.989Z,31.726074
2019-03-22T09:52:11.470Z,32.330322
2019-03-22T09:53:21.021Z,31.536865
2019-03-22T09:54:30.545Z,31.854248
2019-03-22T09:55:40.190Z,31.854248
2019-03-22T09:56:49.740Z,32.244873
2019-03-22T09:57:59.249Z,31.640625
2019-03-22T09:59:08.755Z,31.231689
2019-03-22T10:00:18.275Z,31.451416
2019-03-22T10:01:27.811Z,32.678223
2019-03-22T10:02:37.350Z,32.794189
2019-03-22T10:03:46.906Z,32.983398
2019-03-22T10:04:56.480Z,33.502197
2019-03-22T10:06:06.053Z,33.099365
2019-03-22T10:07:15.518Z,32.37915
2019-03-22T10:08:25.051Z,32.879639
2019-03-22T10:09:34.592Z,32.562256
2019-03-22T10:10:44.119Z,32.4646
2019-03-22T10:11:53.653Z,33.050537
2019-03-22T10:13:03.204Z,33.441162
2019-03-22T10:14:12.750Z,33.325195
2019-03-22T10:15:22.285Z,32.702637
2019-03-22T10:16:31.823Z,32.788086
2019-03-22T10:17:41.396Z,31.549072
2019-03-22T10:18:50.873Z,31.530762
2019-03-22T10:20:00.473Z,30.511475
2019-03-22T10:21:21.811Z,30.615234
2019-03-22T10:22:20.478Z,30.914307
2019-03-22T10:23:30.019Z,30.712891
2019-03-22T10:24:39.570Z,30.310059
2019-03-22T10:25:49.119Z,29.79126
2019-03-22T10:26:58.659Z,29.492188
2019-03-22T10:28:09.203Z,30.010986
2019-03-22T10:29:18.737Z,30.79834
2019-03-22T10:30:28.247Z,29.907227
2019-03-22T10:31:37.996Z,30.700684
2019-03-22T10:32:47.304Z,30.596924
2019-03-22T10:33:56.897Z,29.980469
2019-03-22T10:35:06.443Z,30.078125
2019-03-22T10:36:15.925Z,30.181885
2019-03-22T10:37:25.479Z,29.980469
2019-03-22T10:38:35.002Z,29.376221
2019-03-22T10:39:45.546Z,30.786133
2019-03-22T10:40:55.070Z,29.779053
2019-03-22T10:42:04.608Z,29.364014
2019-03-22T10:43:14.164Z,30.181885
2019-03-22T10:44:23.688Z,29.663086
2019-03-22T10:45:33.231Z,29.864502
2019-03-22T10:46:42.762Z,30.255127
2019-03-22T10:47:52.296Z,30.767822
2019-03-22T10:49:01.837Z,32.080078
2019-03-22T10:50:11.378Z,31.188965
2019-03-22T10:51:21.604Z,30.566406
2019-03-22T10:52:30.484Z,29.980469
2019-03-22T10:53:40.025Z,30.987549
2019-03-22T10:54:49.542Z,31.604004
2019-03-22T10:55:59.081Z,32.324219
2019-03-22T10:57:08.607Z,33.24585
2019-03-22T10:58:21.074Z,33.349609
2019-03-22T10:59:27.681Z,33.837891
2019-03-22T11:00:37.193Z,33.416748
2019-03-22T11:02:02.157Z,32.293701
2019-03-22T11:02:58.231Z,30.987549
2019-03-22T11:05:17.327Z,29.864502
2019-03-22T11:06:26.902Z,29.864502
2019-03-22T11:07:36.351Z,29.864502
2019-03-22T11:08:45.895Z,30.670166
2019-03-22T11:09:55.451Z,30.957031
2019-03-22T11:11:04.991Z,30.853271
2019-03-22T11:12:14.550Z,31.140137
2019-03-22T11:13:24.092Z,31.445312
2019-03-22T11:14:33.645Z,30.743408
2019-03-22T11:15:48.309Z,28.430176
2019-03-22T11:16:53.676Z,28.216553
2019-03-22T11:18:03.209Z,28.619385
2019-03-22T11:19:12.729Z,28.619385
2019-03-22T11:20:22.269Z,28.515625
2019-03-22T11:21:31.819Z,28.314209
2019-03-22T11:22:41.366Z,28.302002
2019-03-22T11:23:51.871Z,28.90625
2019-03-22T11:25:01.458Z,28.692627
2019-03-22T11:26:11.005Z,28.588867
2019-03-22T11:27:22.057Z,28.289795
2019-03-22T11:28:30.053Z,28.375244
2019-03-22T11:29:39.631Z,28.674316
2019-03-22T11:30:49.176Z,28.674316
2019-03-22T11:31:58.706Z,28.277588
2019-03-22T11:33:09.225Z,28.875732
2019-03-22T11:34:18.770Z,28.259277
2019-03-22T11:35:28.317Z,28.662109
2019-03-22T11:36:37.861Z,29.162598
2019-03-22T11:37:47.399Z,28.851318
2019-03-22T11:38:56.938Z,28.33252
2019-03-22T11:40:06.512Z,27.545166
2019-03-22T11:41:16.024Z,28.765869
2019-03-22T11:42:25.572Z,28.778076
2019-03-22T11:43:35.091Z,28.979492
2019-03-22T11:44:44.692Z,29.162598
2019-03-22T11:45:54.179Z,28.662109
2019-03-22T11:47:03.705Z,28.460693
2019-03-22T11:48:13.257Z,28.259277
2019-03-22T11:49:22.779Z,28.448486
2019-03-22T11:50:32.388Z,28.619385
2019-03-22T11:51:42.020Z,27.893066
2019-03-22T11:52:52.609Z,26.971436
2019-03-22T11:54:02.260Z,26.855469
2019-03-22T11:55:11.917Z,26.45874
2019-03-22T11:56:21.494Z,26.470947
2019-03-22T11:57:31.026Z,26.556396
2019-03-22T11:58:40.570Z,26.35498
2019-03-22T11:59:51.109Z,26.35498
2019-03-22T12:01:00.681Z,25.756836
2019-03-22T12:02:10.192Z,26.971436
2019-03-22T12:03:20.715Z,26.757812
2019-03-22T12:04:30.230Z,26.544189
2019-03-22T12:05:40.393Z,25.848389
2019-03-22T12:06:49.291Z,26.654053
2019-03-22T12:07:58.828Z,26.092529
2019-03-22T12:09:08.360Z,26.397705
2019-03-22T12:10:17.927Z,26.055908
2019-03-22T12:11:27.454Z,25.537109
2019-03-22T12:12:36.991Z,25.024414
2019-03-22T12:13:46.525Z,25.457764
2019-03-22T12:14:56.060Z,26.080322
2019-03-22T12:16:05.594Z,26.580811
2019-03-22T12:17:15.141Z,25.646973
2019-03-22T12:18:24.701Z,24.810791
2019-03-22T12:19:34.240Z,24.090576
2019-03-22T12:20:43.849Z,23.895264
2019-03-22T12:21:53.324Z,23.681641
2019-03-22T12:23:02.869Z,23.55957
2019-03-22T12:24:12.384Z,22.546387
2019-03-22T12:25:22.928Z,22.314453
2019-03-22T12:26:32.469Z,21.203613
2019-03-22T12:27:42.004Z,20.996094
2019-03-22T12:28:51.526Z,21.209717
2019-03-22T12:30:01.074Z,21.508789
2019-03-22T12:31:10.618Z,21.728516
2019-03-22T12:32:20.151Z,22.290039
2019-03-22T12:33:30.676Z,22.875977
2019-03-22T12:34:40.195Z,22.467041
2019-03-22T12:35:49.736Z,21.728516
2019-03-22T12:36:59.277Z,21.618652
2019-03-22T12:38:09.781Z,21.112061
2019-03-22T12:39:19.348Z,21.044922
2019-03-22T12:40:28.889Z,21.661377
2019-03-22T12:41:38.412Z,21.234131
2019-03-22T12:42:47.950Z,21.002197
2019-03-22T12:43:57.466Z,20.391846
2019-03-22T12:45:07.004Z,19.873047
2019-03-22T12:46:16.560Z,20.281982
2019-03-22T12:47:26.089Z,19.976807
2019-03-22T12:48:35.622Z,20.288086
2019-03-22T12:49:45.148Z,20.19043
2019-03-22T12:50:54.699Z,20.300293
2019-03-22T12:52:04.230Z,20.220947
2019-03-22T12:53:13.764Z,20.629883
2019-03-22T12:54:23.306Z,21.234131
2019-03-22T12:55:32.849Z,21.44165
2019-03-22T12:56:42.395Z,22.155762
2019-03-22T12:57:51.929Z,21.64917
2019-03-22T12:59:01.469Z,21.240234
2019-03-22T13:00:11.007Z,20.86792
2019-03-22T13:01:20.577Z,21.051025
2019-03-22T13:02:30.117Z,20.635986
2019-03-22T13:03:40.636Z,20.062256
2019-03-22T13:04:50.178Z,19.732666
2019-03-22T13:05:59.719Z,20.318604
2019-03-22T13:07:09.251Z,19.708252
2019-03-22T13:08:18.789Z,19.793701
2019-03-22T13:09:28.330Z,19.598389
2019-03-22T13:10:37.886Z,19.586182
2019-03-22T13:11:47.403Z,19.580078
2019-03-22T13:12:56.936Z,18.988037
2019-03-22T13:14:06.475Z,19.073486
2019-03-22T13:15:16.000Z,19.506836
2019-03-22T13:16:25.550Z,19.500732
2019-03-22T13:17:35.108Z,19.085693